Portada
METAR-TAF:

METAR-TAF

Aeroports :

Al-Riyad, Aràbia Saudita

latitud: 24-56N, longitud: 046-43E, altitud: 614 m

Observació

L'informe es va fer fa 1 hora i 8 minuts, a les 22:00 UTC
Vent 2 kt del Sud-Est
Temperatura 18°C
Humitat 42%
Pressió 1019 hPa
Visibilitat 10 km o més
sense núvols per sota de 1500 mi sense presència de cumulonimbus.

METAR: OERK 302200Z 13002KT CAVOK 18/05 Q1019 NOSIG

Hora: 02:08 (23:08 UTC)

Pronòstic

L'informe es va fer fa 6 hores i 8 minuts, a les 17:00 UTC
Pronòstic vàlid del 30 a les 18 UTC al 01 a les 24 UTC
Vent 6 kt del Sud/Sud-Est
Visibilitat 10 km o més
Escasses núvols a una alçada de 4000 ft
Evolucionant progressivament
l' 01 a les 03 UTC al 01 a les 05 UTC
Vent 8 kt del Oest
Visibilitat 10 km o més
sense núvols per sota de 1500 mi sense presència de cumulonimbus.
Evolucionant progressivament
l' 01 a les 14 UTC al 01 a les 16 UTC
Vent 6 kt del Nord/Nord-Est

TAF: OERK 301700Z 3018/0124 16006KT 9999 FEW040 BECMG 0103/0105 28008KT CAVOK BECMG 0114/0116 02006KT

Observacions i pronòstics meteorològics de més de 4000 aeroports (METAR i TAF).

Les estacions disponibles són els punts grocs i vermells al mapa.

Posi el ratolí al punt desitjat per veure el nom de l'estació.

Feu clic per veure les observacions i els pronòstics meteorològics.

Per canviar el mapa: feu clic els botons verds amb una creu de color negre per apropar; al botó verd amb un guió per allunyar la imatge; o en les fletxes verdes per a mapes adjacents.


METAR-TAF: